Time;durP1;ratioP1;P1;durP2;ratioP2;P2;SDS_P1;SDS_P2;PMS_P1;PMS_P2;Temp;Humidity;BMP_temperature;BMP_pressure;BME280_temperature;BME280_humidity;BME280_pressure;Samples;Min_cycle;Max_cycle;Signal;HPM_P1;HPM_P2
2020/12/29 10:19:57;;;;;;;6.40;5.50;;;;;;;3.96;93.77;96324.19;5169073;27;20539;-86
2020/12/29 10:22:26;;;;;;;2.83;2.53;;;;;;;4.80;92.09;96343.84;5133206;27;39917;-84
2020/12/29 10:24:53;;;;;;;1.40;1.30;;;;;;;5.46;87.85;96347.19;5149605;22;42404;-82
2020/12/29 10:27:20;;;;;;;1.50;1.40;;;;;;;5.83;83.38;96371.25;4985362;28;44110;-83
2020/12/29 10:29:47;;;;;;;1.80;1.20;;;;;;;6.15;79.97;96360.72;4985927;28;43651;-86
2020/12/29 10:32:14;;;;;;;1.33;1.10;;;;;;;6.39;77.98;96366.53;4985852;28;40943;-85
2020/12/29 10:34:42;;;;;;;0.90;0.90;;;;;;;6.76;77.36;96372.91;4985377;28;41944;-88
2020/12/29 10:37:11;;;;;;;2.00;1.17;;;;;;;7.02;75.23;96375.06;5148494;22;44211;-84
2020/12/29 10:39:38;;;;;;;1.87;1.10;;;;;;;7.53;73.69;96386.22;5108768;27;43554;-86
2020/12/29 10:42:08;;;;;;;0.70;0.70;;;;;;;8.19;72.18;96388.97;5004107;28;40678;-82
2020/12/29 10:44:35;;;;;;;1.03;1.03;;;;;;;8.38;71.02;96388.13;5073953;28;42863;-83
2020/12/29 10:47:02;;;;;;;0.90;0.90;;;;;;;8.69;70.21;96409.81;5180713;22;42378;-84
2020/12/29 10:49:30;;;;;;;1.00;0.83;;;;;;;8.58;70.12;96412.63;5183454;22;41362;-85
2020/12/29 10:51:57;;;;;;;1.00;1.00;;;;;;;8.39;69.16;96410.91;5099555;27;40363;-80
2020/12/29 10:54:25;;;;;;;0.97;0.90;;;;;;;8.17;68.82;96422.53;5105163;27;42271;-83
2020/12/29 10:56:51;;;;;;;0.90;0.90;;;;;;;7.93;69.75;96422.97;5123148;27;42510;-82
2020/12/29 10:59:19;;;;;;;0.80;0.70;;;;;;;7.66;70.59;96435.19;5209983;22;43448;-81
2020/12/29 11:01:46;;;;;;;0.80;0.80;;;;;;;7.47;70.54;96435.97;5107397;27;37916;-84
2020/12/29 11:04:13;;;;;;;0.80;0.80;;;;;;;7.19;71.46;96432.28;5107724;27;41511;-85
2020/12/29 11:06:40;;;;;;;1.00;1.00;;;;;;;7.00;71.78;96442.75;5103583;27;43347;-82
2020/12/29 11:09:08;;;;;;;1.10;0.90;;;;;;;6.90;71.93;96441.91;5082985;27;42699;-81
2020/12/29 11:11:36;;;;;;;1.33;1.10;;;;;;;6.79;72.48;96435.78;5176959;22;39821;-82
2020/12/29 11:14:03;;;;;;;0.80;0.80;;;;;;;6.76;72.58;96449.16;5103873;28;42429;-82
2020/12/29 11:16:30;;;;;;;0.87;0.80;;;;;;;6.53;72.45;96424.00;5115165;27;43809;-83
2020/12/29 11:18:57;;;;;;;0.93;0.90;;;;;;;6.68;72.65;96454.22;5124063;27;42071;-84
2020/12/29 11:21:24;;;;;;;0.83;0.77;;;;;;;6.68;72.76;96470.00;5124046;27;39720;-84
2020/12/29 11:23:52;;;;;;;0.60;0.60;;;;;;;6.71;72.57;96480.28;5193975;22;43072;-80
2020/12/29 11:26:21;;;;;;;0.90;0.90;;;;;;;6.52;72.08;96469.66;5127857;27;42779;-82
2020/12/29 11:28:49;;;;;;;0.50;0.50;;;;;;;6.61;72.48;96489.09;5127714;27;42917;-82
2020/12/29 11:31:18;;;;;;;0.80;0.80;;;;;;;6.60;73.19;96498.75;5096698;27;40405;-82
2020/12/29 11:33:46;;;;;;;0.60;0.60;;;;;;;6.58;73.25;96492.78;5113500;27;41746;-81
2020/12/29 11:36:16;;;;;;;1.10;0.87;;;;;;;6.54;72.77;96509.81;5169904;22;43491;-80
2020/12/29 11:38:43;;;;;;;1.03;0.70;;;;;;;6.47;72.56;96513.91;5058491;28;42911;-84
2020/12/29 11:41:11;;;;;;;0.70;0.70;;;;;;;6.44;72.71;96514.13;5073158;28;41711;-81
2020/12/29 11:43:38;;;;;;;0.53;0.50;;;;;;;6.38;73.12;96515.50;5075205;28;42002;-82
2020/12/29 11:46:06;;;;;;;0.50;0.50;;;;;;;6.34;73.22;96523.75;5161058;22;43714;-83
2020/12/29 11:48:34;;;;;;;0.53;0.53;;;;;;;6.33;73.86;96532.59;5056775;28;42494;-83
2020/12/29 11:51:01;;;;;;;0.83;0.83;;;;;;;6.33;73.10;96551.00;5072468;28;39880;-83
2020/12/29 11:53:28;;;;;;;1.00;0.80;;;;;;;6.31;73.25;96559.00;5056524;28;43409;-81
2020/12/29 11:55:55;;;;;;;0.87;0.87;;;;;;;6.29;73.47;96562.75;5071738;28;43273;-79
2020/12/29 11:58:22;;;;;;;0.80;0.80;;;;;;;6.20;73.66;96547.72;5185906;22;42841;-82
2020/12/29 12:00:49;;;;;;;0.80;0.80;;;;;;;6.15;73.89;96565.66;5113655;27;39696;-81
2020/12/29 12:03:17;;;;;;;0.80;0.80;;;;;;;6.21;74.49;96573.03;5097164;27;42161;-82
2020/12/29 12:05:45;;;;;;;0.70;0.70;;;;;;;6.23;74.39;96573.75;5096940;27;43582;-83
2020/12/29 12:08:12;;;;;;;0.70;0.70;;;;;;;6.15;74.02;96582.25;5074384;27;43251;-85
2020/12/29 12:10:39;;;;;;;1.10;0.90;;;;;;;6.14;74.63;96575.34;5184377;22;40212;-87
2020/12/29 12:13:07;;;;;;;0.70;0.70;;;;;;;6.21;73.80;96586.16;5079078;28;42090;-84
2020/12/29 12:15:34;;;;;;;1.00;0.90;;;;;;;6.25;74.09;96596.31;5076735;28;43341;-83
2020/12/29 12:18:01;;;;;;;1.27;0.77;;;;;;;6.30;73.83;96602.03;5090504;28;42579;-84
2020/12/29 12:23:29;;;;;;;1.30;1.20;;;;;;;6.28;73.66;96605.75;4927129;28;42247;-82
2020/12/29 12:25:56;;;;;;;1.03;1.03;;;;;;;6.35;73.17;96612.16;4913069;28;43724;-85
2020/12/29 12:28:24;;;;;;;0.90;0.90;;;;;;;6.42;73.15;96615.97;4910412;28;42596;-86
2020/12/29 12:30:51;;;;;;;1.20;1.07;;;;;;;6.49;72.92;96612.72;4918123;28;40170;-87
2020/12/29 12:33:18;;;;;;;1.10;1.10;;;;;;;6.58;72.49;96615.53;5021838;23;43137;-82
2020/12/29 12:35:45;;;;;;;1.03;1.00;;;;;;;6.63;72.33;96611.59;4952383;28;44448;-84
2020/12/29 12:38:13;;;;;;;1.40;1.10;;;;;;;6.80;72.18;96623.31;4954551;28;43177;-84
2020/12/29 12:40:41;;;;;;;1.20;1.10;;;;;;;7.30;70.96;96624.34;4935276;28;39309;-84
2020/12/29 12:43:08;;;;;;;1.00;1.00;;;;;;;7.58;70.05;96631.56;4957376;28;42869;-86
2020/12/29 12:45:35;;;;;;;1.43;1.00;;;;;;;7.66;69.29;96645.88;5026547;23;43875;-87
2020/12/29 12:48:02;;;;;;;1.80;1.10;;;;;;;7.72;69.40;96650.59;5026490;28;42181;-86
2020/12/29 12:50:29;;;;;;;1.57;1.23;;;;;;;8.02;69.03;96655.88;5018533;28;40422;-83
2020/12/29 12:52:57;;;;;;;1.30;1.10;;;;;;;8.00;68.44;96660.44;4983409;28;42429;-84
2020/12/29 12:55:24;;;;;;;1.73;0.80;;;;;;;7.96;68.45;96648.47;4931654;28;44424;-82
2020/12/29 12:58:06;;;;;;;1.23;1.00;;;;;;;8.00;67.79;96670.97;5001685;28;20240;-85
2020/12/29 13:00:33;;;;;;;1.33;1.00;;;;;;;8.84;66.65;96679.34;5055624;28;39573;-84
2020/12/29 13:03:00;;;;;;;1.20;1.10;;;;;;;12.00;59.92;96696.31;5034750;28;43739;-84
2020/12/29 13:05:29;;;;;;;0.97;0.87;;;;;;;14.54;55.48;96714.00;5036160;28;43124;-86
2020/12/29 13:07:57;;;;;;;1.13;0.90;;;;;;;15.84;48.78;96731.00;5142854;22;42082;-87
2020/12/29 13:10:24;;;;;;;0.93;0.90;;;;;;;16.28;48.32;96744.47;5025145;28;39096;-82
2020/12/29 13:12:51;;;;;;;1.20;1.10;;;;;;;15.45;47.77;96746.13;5032930;28;42552;-86
2020/12/29 13:15:19;;;;;;;1.37;1.10;;;;;;;14.71;47.86;96750.22;5037691;28;45172;-81
2020/12/29 13:17:46;;;;;;;1.43;0.90;;;;;;;13.69;50.17;96726.16;5054513;28;43517;-83
2020/12/29 13:20:14;;;;;;;1.37;1.10;;;;;;;12.89;50.67;96744.47;5123266;22;40672;-83
2020/12/29 13:22:42;;;;;;;1.27;1.03;;;;;;;12.30;51.75;96745.41;5031584;28;41408;-84
2020/12/29 13:25:10;;;;;;;1.07;0.93;;;;;;;11.78;54.23;96726.84;5032657;28;42907;-85
2020/12/29 13:27:38;;;;;;;1.27;0.80;;;;;;;11.52;55.14;96736.53;5016495;28;43726;-81
2020/12/29 13:30:05;;;;;;;1.27;1.17;;;;;;;11.31;55.50;96739.53;5032939;28;41990;-80
2020/12/29 13:32:38;;;;;;;0.80;0.80;;;;;;;10.97;55.08;96722.66;5027675;22;42867;-82
2020/12/29 13:35:05;;;;;;;0.90;0.90;;;;;;;10.68;56.56;96709.59;4931111;28;41637;-82
2020/12/29 13:37:33;;;;;;;1.73;1.00;;;;;;;10.63;57.28;96733.06;4930674;28;40796;-84
2020/12/29 13:40:00;;;;;;;0.97;0.90;;;;;;;10.41;56.51;96735.09;4946807;28;39580;-84
2020/12/29 13:42:27;;;;;;;0.80;0.80;;;;;;;10.21;57.24;96745.91;5029817;22;43206;-83
2020/12/29 13:44:54;;;;;;;1.20;0.93;;;;;;;10.15;57.13;96757.84;5052585;28;42351;-83
2020/12/29 13:47:21;;;;;;;1.50;0.90;;;;;;;9.98;57.47;96740.94;4989313;28;41992;-83
2020/12/29 13:49:49;;;;;;;1.47;0.73;;;;;;;10.01;58.40;96759.16;5037406;28;40563;-86
2020/12/29 13:52:16;;;;;;;0.93;0.90;;;;;;;9.79;57.73;96767.41;5052767;28;42105;-84
2020/12/29 13:54:43;;;;;;;0.97;0.90;;;;;;;9.64;58.38;96776.78;5084458;22;43514;-84
2020/12/29 13:57:10;;;;;;;1.17;0.90;;;;;;;9.54;59.24;96776.75;4930802;28;42550;-86
2020/12/29 13:59:38;;;;;;;3.20;1.10;;;;;;;9.39;59.21;96761.50;4938523;28;40266;-85
2020/12/29 14:02:05;;;;;;;0.90;0.80;;;;;;;9.32;58.42;96788.44;4975699;28;41646;-82
2020/12/29 14:04:32;;;;;;;1.50;1.10;;;;;;;8.79;58.97;96743.09;4946452;28;42902;-85
2020/12/29 14:07:00;;;;;;;0.90;0.90;;;;;;;8.84;59.53;96783.13;5068544;23;42491;-83
2020/12/29 14:09:27;;;;;;;1.17;0.90;;;;;;;8.55;60.33;96761.09;5085649;22;41405;-87
2020/12/29 14:11:55;;;;;;;1.60;1.10;;;;;;;8.48;60.43;96781.91;4951981;28;42330;-88
2020/12/29 14:14:23;;;;;;;1.63;0.87;;;;;;;8.20;61.35;96790.50;5078165;28;42591;-88
2020/12/29 14:16:52;;;;;;;2.13;1.30;;;;;;;7.91;62.04;96774.56;5055367;28;41981;-89
2020/12/29 14:19:19;;;;;;;0.93;0.90;;;;;;;7.82;62.97;96783.22;5042458;22;39884;-85
2020/12/29 14:21:47;;;;;;;1.10;0.90;;;;;;;7.77;62.94;96795.97;4964476;28;41461;-84
2020/12/29 14:24:16;;;;;;;1.27;1.10;;;;;;;7.70;63.53;96800.06;4933626;28;42894;-87
2020/12/29 14:26:47;;;;;;;1.57;1.20;;;;;;;7.54;63.57;96784.72;4934260;28;42921;-87
2020/12/29 14:29:42;;;;;;;2.90;1.23;;;;;;;7.57;63.64;96805.50;4943255;22;41600;31
2020/12/29 14:32:10;;;;;;;1.93;1.13;;;;;;;7.34;64.18;96783.72;5011739;28;41063;-86
2020/12/29 14:34:37;;;;;;;1.63;1.20;;;;;;;7.17;64.65;96792.19;5012714;28;43417;-83
2020/12/29 14:37:04;;;;;;;2.37;1.20;;;;;;;7.03;64.86;96797.72;4998225;28;43535;-85
2020/12/29 14:39:32;;;;;;;1.73;1.33;;;;;;;6.87;65.36;96799.91;5014890;28;39845;-83
2020/12/29 14:41:59;;;;;;;3.23;1.40;;;;;;;6.64;65.77;96784.19;5087750;22;43119;-85
2020/12/29 14:44:26;;;;;;;3.10;1.60;;;;;;;6.67;66.31;96810.25;4953311;28;44268;-86
2020/12/29 14:46:53;;;;;;;2.87;1.20;;;;;;;6.43;66.54;96791.13;4953487;28;42733;-86
2020/12/29 14:49:21;;;;;;;2.13;1.30;;;;;;;6.31;66.82;96792.09;4952749;28;41001;-86
2020/12/29 14:51:48;;;;;;;2.13;1.60;;;;;;;6.25;66.95;96808.34;4952457;28;42662;-85
2020/12/29 14:57:07;;;;;;;1.97;1.70;;;;;;;6.00;68.34;96823.38;4927319;29;20236;-82
2020/12/29 14:59:34;;;;;;;2.47;1.67;;;;;;;5.91;68.46;96821.47;5009933;28;38101;-83
2020/12/29 15:02:02;;;;;;;2.60;2.20;;;;;;;6.00;68.76;96841.78;4992700;28;43663;-84
2020/12/29 15:04:28;;;;;;;2.37;2.13;;;;;;;5.94;69.02;96825.63;4927062;28;42496;-83
2020/12/29 15:06:56;;;;;;;4.33;1.83;;;;;;;5.89;68.98;96841.75;5041526;22;42120;-80
2020/12/29 15:09:23;;;;;;;2.03;1.93;;;;;;;5.76;69.51;96830.47;4940977;28;41643;-81
2020/12/29 15:11:50;;;;;;;2.30;1.33;;;;;;;5.80;69.57;96850.31;4933592;28;42326;-80
2020/12/29 15:14:18;;;;;;;2.23;1.60;;;;;;;5.71;69.63;96845.72;4932949;28;43523;-83
2020/12/29 15:16:45;;;;;;;3.40;1.57;;;;;;;5.67;70.19;96857.44;5045607;22;41917;-82
2020/12/29 15:19:12;;;;;;;3.63;2.00;;;;;;;5.63;70.14;96858.59;5039887;28;40299;-82
2020/12/29 15:21:39;;;;;;;2.30;1.77;;;;;;;5.58;70.48;96864.19;5040185;28;42149;-82
2020/12/29 15:24:07;;;;;;;2.60;2.03;;;;;;;5.54;71.15;96854.03;5055547;28;42520;-83
2020/12/29 15:26:34;;;;;;;3.23;2.37;;;;;;;5.57;70.80;96864.28;5039596;28;44335;-81
2020/12/29 15:29:01;;;;;;;2.60;1.60;;;;;;;5.55;71.04;96866.22;5087157;22;41169;-82
2020/12/29 15:31:29;;;;;;;1.97;1.77;;;;;;;5.43;70.94;96848.75;4932759;28;42348;-81
2020/12/29 15:33:56;;;;;;;2.40;1.80;;;;;;;5.43;70.94;96848.75;4932731;28;43153;-82
2020/12/29 15:36:23;;;;;;;3.37;1.97;;;;;;;5.56;71.43;96867.91;4917092;28;43644;-83
2020/12/29 15:38:50;;;;;;;4.33;2.30;;;;;;;5.47;71.36;96847.56;4932155;28;39766;-84
2020/12/29 15:41:18;;;;;;;3.27;2.07;;;;;;;5.55;71.45;96868.84;5037136;23;42320;-81
2020/12/29 15:43:46;;;;;;;2.70;2.03;;;;;;;5.53;71.96;96866.31;4967006;28;42513;-82
2020/12/29 15:46:13;;;;;;;3.73;2.13;;;;;;;5.39;71.77;96851.59;4936639;28;42933;-80
2020/12/29 15:48:44;;;;;;;4.07;1.90;;;;;;;5.44;71.74;96874.03;4952164;28;41908;-81
2020/12/29 15:51:13;;;;;;;3.83;2.03;;;;;;;5.29;71.93;96855.84;4966984;28;41360;-81
2020/12/29 15:53:40;;;;;;;4.40;1.97;;;;;;;5.28;72.14;96864.66;5055158;22;45035;-83
2020/12/29 15:56:07;;;;;;;3.63;1.77;;;;;;;5.24;71.86;96878.09;4955271;28;43279;-83
2020/12/29 15:58:34;;;;;;;2.63;2.20;;;;;;;5.15;72.04;96863.03;4970245;28;40375;-84
2020/12/29 16:01:01;;;;;;;3.47;2.60;;;;;;;5.00;72.23;96849.25;4971297;28;43525;-83
2020/12/29 16:03:28;;;;;;;3.57;2.17;;;;;;;5.13;72.37;96883.28;5039146;22;43216;-83
2020/12/29 16:05:56;;;;;;;3.63;2.13;;;;;;;5.09;72.63;96885.28;5055109;28;42303;-85
2020/12/29 16:08:23;;;;;;;3.80;2.43;;;;;;;5.05;72.75;96889.09;5055574;28;40753;-81
2020/12/29 16:10:50;;;;;;;3.17;2.10;;;;;;;5.03;72.83;96886.59;5055025;28;41649;-80
2020/12/29 16:13:17;;;;;;;3.20;2.00;;;;;;;5.00;73.20;96881.56;5038831;28;43820;-83
2020/12/29 16:15:45;;;;;;;2.87;2.30;;;;;;;4.93;73.40;96885.56;5089436;23;42749;-81
2020/12/29 16:18:12;;;;;;;6.47;2.60;;;;;;;4.76;73.29;96867.56;4935257;28;41355;-83
2020/12/29 16:20:39;;;;;;;3.07;2.07;;;;;;;4.80;73.12;96892.63;4950547;28;42287;-80
2020/12/29 16:23:07;;;;;;;2.83;2.00;;;;;;;4.82;73.03;96908.25;4968208;28;43875;-80
2020/12/29 16:25:34;;;;;;;4.13;2.60;;;;;;;4.82;73.44;96908.25;4950793;28;43654;-82
2020/12/29 16:28:02;;;;;;;4.53;2.17;;;;;;;4.78;73.42;96912.03;5083802;22;40984;-81
2020/12/29 16:30:29;;;;;;;3.10;1.90;;;;;;;4.74;73.34;96915.81;5018733;28;43135;-85
2020/12/29 16:32:56;;;;;;;3.43;2.40;;;;;;;4.66;73.72;96913.75;5033632;28;42461;-83
2020/12/29 16:35:24;;;;;;;3.23;2.33;;;;;;;4.46;73.74;96902.00;5034269;28;44462;-83
2020/12/29 16:37:51;;;;;;;4.23;2.27;;;;;;;4.48;73.62;96918.47;5034345;28;41263;-81
2020/12/29 16:40:19;;;;;;;4.33;2.00;;;;;;;4.40;73.67;96933.88;5073104;22;40601;-83
